Main page
METAR-TAF:

METAR-TAF

Airports :

Angers, France

Angers – Loire Airport

latitude: 47-33-37N, longitude: 000-18-44W, elevation: 59 m

METAR: missing

Time: 23:09 (22:09 UTC)

Forecast

The report was made 8 hours and 9 minutes ago, at 14:00 UTC
Forecast valid from 19 at 15 UTC to 19 at 24 UTC
Wind 4 kt from the West/Northwest
Visibility: 8000 m
Overcast at a height of 600 ft
Temporary
from 19 at 15 UTC to 19 at 24 UTC
Visibility: 4000 m
light drizzle

TAF: LFJR 191400Z 1915/1924 30004KT 8000 OVC006 TEMPO 1915/1924 4000 -DZ

Weather observations and forecasts of more than 4000 airports (METAR and TAF reports).

The available stations are represented by yellow and red dots on the map.

Hover mouse over dot to see the name of the station.

Then click to see weather observations and forecasts.

To change the map : click on the green buttons with a black cross to zoom in, on the green button with a dash to zoom out, or on the green arrows for adjacent maps.


METAR-TAF: